Time;durP1;ratioP1;P1;durP2;ratioP2;P2;SDS_P1;SDS_P2;PMS_P1;PMS_P2;Temp;Humidity;BMP_temperature;BMP_pressure;BME280_temperature;BME280_humidity;BME280_pressure;Samples;Min_cycle;Max_cycle;Signal;HPM_P1;HPM_P2
2023/06/11 00:00:04;;;;;;;14.13;10.00;;;22.80;98.30;;;;;;5021318;28;20180;-83
2023/06/11 00:02:33;;;;;;;10.37;9.13;;;22.80;98.10;;;;;;5015843;28;20197;-83
2023/06/11 00:04:59;;;;;;;11.60;9.90;;;22.70;98.30;;;;;;5023057;28;20875;-83
2023/06/11 00:07:27;;;;;;;11.80;9.43;;;22.60;98.90;;;;;;5015994;28;20830;-83
2023/06/11 00:09:53;;;;;;;14.63;9.90;;;22.50;98.30;;;;;;5010279;28;20969;-84
2023/06/11 00:12:18;;;;;;;18.23;9.57;;;22.50;98.70;;;;;;5025205;28;20437;-81
2023/06/11 00:14:44;;;;;;;15.13;10.00;;;22.50;99.40;;;;;;5024507;28;20179;-83
2023/06/11 00:17:11;;;;;;;13.63;9.70;;;22.50;99.90;;;;;;5020302;28;20266;-80
2023/06/11 00:19:36;;;;;;;12.97;10.37;;;22.40;99.90;;;;;;5017681;28;20341;-81
2023/06/11 00:22:02;;;;;;;16.00;10.47;;;22.30;99.90;;;;;;5019857;28;20490;-82
2023/06/11 00:24:28;;;;;;;10.93;9.33;;;22.30;99.90;;;;;;5029349;28;20195;-83
2023/06/11 00:26:55;;;;;;;16.60;9.90;;;22.30;99.90;;;;;;5004352;28;20978;-84
2023/06/11 00:29:20;;;;;;;13.27;9.00;;;22.30;99.90;;;;;;5016044;28;20984;-83
2023/06/11 00:31:46;;;;;;;14.53;9.40;;;22.20;99.90;;;;;;5023571;28;20527;-81
2023/06/11 00:34:11;;;;;;;14.93;9.97;;;22.20;99.90;;;;;;5021297;28;20870;-81
2023/06/11 00:36:40;;;;;;;11.20;9.80;;;22.10;99.90;;;;;;4997176;28;20758;-81
2023/06/11 00:39:05;;;;;;;19.80;9.77;;;22.10;99.90;;;;;;5015743;28;20608;-82
2023/06/11 00:41:31;;;;;;;18.77;11.07;;;22.10;99.90;;;;;;4999651;28;20442;-80
2023/06/11 00:43:57;;;;;;;15.47;9.70;;;22.10;99.90;;;;;;5006433;28;20182;-81
2023/06/11 00:46:23;;;;;;;20.33;9.80;;;22.00;99.90;;;;;;5010717;28;20210;-82
2023/06/11 00:48:50;;;;;;;16.10;10.07;;;22.00;99.90;;;;;;5031324;28;20480;-82
2023/06/11 00:51:17;;;;;;;19.90;10.00;;;22.00;99.90;;;;;;5019911;28;20714;-82
2023/06/11 00:53:43;;;;;;;19.30;10.73;;;22.00;99.90;;;;;;5018222;28;20531;-82
2023/06/11 00:56:08;;;;;;;21.73;10.47;;;21.90;99.90;;;;;;5025096;28;20510;-83
2023/06/11 00:58:34;;;;;;;17.70;10.43;;;21.90;99.90;;;;;;5030863;28;20531;-82
2023/06/11 01:01:00;;;;;;;18.57;10.50;;;21.90;99.90;;;;;;5003125;28;20191;-82
2023/06/11 01:03:27;;;;;;;25.93;10.40;;;21.90;99.90;;;;;;5019251;28;20488;-81
2023/06/11 01:06:17;;;;;;;13.40;9.50;;;21.80;99.90;;;;;;5020735;28;20444;-82
2023/06/11 01:08:42;;;;;;;14.57;10.07;;;21.80;99.90;;;;;;4992995;28;20466;-83
2023/06/11 01:11:09;;;;;;;15.07;10.13;;;21.80;99.90;;;;;;5012354;28;20449;-83
2023/06/11 01:13:38;;;;;;;16.07;9.40;;;21.70;99.90;;;;;;5013507;28;20548;-82
2023/06/11 01:16:09;;;;;;;14.13;9.37;;;21.70;99.90;;;;;;4995971;28;20442;-82
2023/06/11 01:18:46;;;;;;;15.70;10.23;;;21.70;99.90;;;;;;5021585;28;20472;-83
2023/06/11 01:21:17;;;;;;;10.30;9.20;;;21.70;99.90;;;;;;5014297;28;20498;-82
2023/06/11 01:24:03;;;;;;;11.37;9.50;;;21.60;99.90;;;;;;5005858;28;20470;-82
2023/06/11 01:27:12;;;;;;;11.00;9.50;;;21.60;99.90;;;;;;5012433;28;21042;-82
2023/06/11 01:29:45;;;;;;;11.00;10.00;;;21.50;99.90;;;;;;5026414;28;20436;-81
2023/06/11 01:32:11;;;;;;;10.57;9.03;;;21.50;99.90;;;;;;5030897;28;20441;-82
2023/06/11 01:34:41;;;;;;;14.73;10.27;;;21.50;99.90;;;;;;5023167;28;20436;-83
2023/06/11 01:37:09;;;;;;;10.53;9.20;;;21.50;99.90;;;;;;5015824;28;20449;-83
2023/06/11 01:39:34;;;;;;;9.97;9.00;;;21.40;99.90;;;;;;5021184;28;20576;-80
2023/06/11 01:42:00;;;;;;;10.33;9.40;;;21.40;99.90;;;;;;5021496;28;20891;-83
2023/06/11 01:44:26;;;;;;;11.10;9.80;;;21.30;99.90;;;;;;5012281;28;20241;-82
2023/06/11 01:46:52;;;;;;;11.40;10.30;;;21.30;99.90;;;;;;5017316;28;20272;-82
2023/06/11 01:49:17;;;;;;;9.87;9.03;;;21.20;99.90;;;;;;5017470;28;20485;-82
2023/06/11 01:51:43;;;;;;;12.07;9.90;;;21.20;99.90;;;;;;5001453;28;20190;-82
2023/06/11 01:54:08;;;;;;;12.80;10.37;;;21.20;99.90;;;;;;5010621;28;20208;-82
2023/06/11 01:56:34;;;;;;;12.07;10.87;;;21.20;99.90;;;;;;5014313;28;20194;-82
2023/06/11 01:59:00;;;;;;;13.37;11.00;;;21.10;99.90;;;;;;5019225;28;20209;-82
2023/06/11 02:01:28;;;;;;;11.60;10.40;;;21.10;99.90;;;;;;5022912;28;20213;-82
2023/06/11 02:03:54;;;;;;;10.87;9.90;;;21.10;99.90;;;;;;5021637;28;20288;-81
2023/06/11 02:06:20;;;;;;;12.03;9.93;;;21.10;99.90;;;;;;5022869;28;20440;-82
2023/06/11 02:08:45;;;;;;;11.93;10.23;;;21.00;99.90;;;;;;4995654;28;20609;-82
2023/06/11 02:11:11;;;;;;;14.40;11.40;;;21.00;99.90;;;;;;4997503;28;20314;-82
2023/06/11 02:13:37;;;;;;;12.80;11.47;;;21.00;99.90;;;;;;5006535;28;20205;-82
2023/06/11 02:16:02;;;;;;;15.70;10.00;;;20.90;99.90;;;;;;4997690;28;20214;-82
2023/06/11 02:18:28;;;;;;;12.63;10.70;;;20.90;99.90;;;;;;5013176;28;20236;-82
2023/06/11 02:20:53;;;;;;;12.30;11.00;;;20.90;99.90;;;;;;5017184;28;20238;-80
2023/06/11 02:23:19;;;;;;;11.93;10.70;;;20.90;99.90;;;;;;5004385;28;20606;-83
2023/06/11 02:25:45;;;;;;;15.83;10.63;;;20.90;99.90;;;;;;5018718;28;20213;-82
2023/06/11 02:28:10;;;;;;;13.77;10.50;;;20.80;99.90;;;;;;5024654;28;20201;-82
2023/06/11 02:30:36;;;;;;;12.23;11.03;;;20.80;99.90;;;;;;5015254;28;22432;-82
2023/06/11 02:33:01;;;;;;;15.80;10.37;;;20.80;99.90;;;;;;5017887;28;20233;-82
2023/06/11 02:35:27;;;;;;;12.83;10.60;;;20.80;99.90;;;;;;5019134;28;20216;-82
2023/06/11 02:37:52;;;;;;;11.50;10.30;;;20.70;99.90;;;;;;4999726;28;20252;-81
2023/06/11 02:40:18;;;;;;;11.10;10.00;;;20.70;99.90;;;;;;5021964;28;20271;-82
2023/06/11 02:42:44;;;;;;;11.47;10.47;;;20.60;99.90;;;;;;5014805;28;20215;-83
2023/06/11 02:45:10;;;;;;;11.23;10.17;;;20.60;99.90;;;;;;4998049;28;20235;-82
2023/06/11 02:47:35;;;;;;;11.60;10.00;;;20.60;99.90;;;;;;5021480;28;20497;-81
2023/06/11 02:50:01;;;;;;;10.60;9.50;;;20.60;99.90;;;;;;5010258;28;20189;-83
2023/06/11 02:52:26;;;;;;;11.17;10.07;;;20.50;99.90;;;;;;5016396;28;20198;-82
2023/06/11 02:54:52;;;;;;;10.93;9.80;;;20.50;99.90;;;;;;5001206;28;20663;-82
2023/06/11 02:57:17;;;;;;;10.70;9.60;;;20.50;99.90;;;;;;5019431;28;20733;-82
2023/06/11 02:59:43;;;;;;;10.13;9.23;;;20.50;99.90;;;;;;5023017;28;20182;-83
2023/06/11 03:02:08;;;;;;;13.23;9.67;;;20.50;99.90;;;;;;5025009;28;20192;-82
2023/06/11 03:04:34;;;;;;;10.27;9.27;;;20.40;99.90;;;;;;5017710;28;20182;-83
2023/06/11 03:06:59;;;;;;;10.17;9.13;;;20.40;99.90;;;;;;5019899;28;20188;-82
2023/06/11 03:09:25;;;;;;;10.43;9.20;;;20.40;99.90;;;;;;5024281;28;20675;-82
2023/06/11 03:11:51;;;;;;;11.47;9.77;;;20.40;99.90;;;;;;5030237;28;20187;-82
2023/06/11 03:14:17;;;;;;;13.53;9.40;;;20.40;99.90;;;;;;5011127;28;20212;-83
2023/06/11 03:16:42;;;;;;;11.20;10.00;;;20.40;99.90;;;;;;5020530;28;20442;-83
2023/06/11 03:19:08;;;;;;;10.90;9.80;;;20.40;99.90;;;;;;5012982;28;20228;-81
2023/06/11 03:21:33;;;;;;;16.10;11.20;;;20.30;99.90;;;;;;5027157;28;20192;-81
2023/06/11 03:23:59;;;;;;;12.00;9.20;;;20.30;99.90;;;;;;5000857;28;20279;-83
2023/06/11 03:26:25;;;;;;;10.50;9.50;;;20.30;99.90;;;;;;5010958;28;20198;-83
2023/06/11 03:28:51;;;;;;;15.27;9.67;;;20.30;99.90;;;;;;5000631;28;20212;-82
2023/06/11 03:31:16;;;;;;;12.73;9.93;;;20.20;99.90;;;;;;5001402;28;20443;-81
2023/06/11 03:33:42;;;;;;;10.73;9.73;;;20.20;99.90;;;;;;5025919;28;20975;-82
2023/06/11 03:36:07;;;;;;;10.13;9.13;;;20.20;99.90;;;;;;5028019;28;20200;-82
2023/06/11 03:38:33;;;;;;;11.40;10.20;;;20.20;99.90;;;;;;5020067;28;20242;-83
2023/06/11 03:40:58;;;;;;;10.93;9.53;;;20.20;99.90;;;;;;5024116;28;20606;-82
2023/06/11 03:43:24;;;;;;;11.50;10.30;;;20.20;99.90;;;;;;5028990;28;20274;-83
2023/06/11 03:45:49;;;;;;;11.80;10.00;;;20.20;99.90;;;;;;5026897;28;20253;-82
2023/06/11 03:48:15;;;;;;;17.23;10.50;;;20.20;99.90;;;;;;5019353;28;20209;-82
2023/06/11 03:50:40;;;;;;;13.83;9.83;;;20.30;99.90;;;;;;5022858;28;20242;-82
2023/06/11 03:53:06;;;;;;;10.83;9.70;;;20.30;99.90;;;;;;5026259;28;20182;-83
2023/06/11 03:55:31;;;;;;;16.47;9.90;;;20.30;99.90;;;;;;5028233;28;20196;-82
2023/06/11 03:57:57;;;;;;;11.80;9.40;;;20.30;99.90;;;;;;5025595;28;20202;-81
2023/06/11 04:00:22;;;;;;;12.63;10.10;;;20.30;99.90;;;;;;5002437;28;20213;-82
2023/06/11 04:02:48;;;;;;;11.80;10.10;;;20.30;99.90;;;;;;5025258;28;20592;-82
2023/06/11 04:05:13;;;;;;;14.00;10.03;;;20.40;99.90;;;;;;5016138;28;20192;-82
2023/06/11 04:07:40;;;;;;;12.00;9.87;;;20.40;99.90;;;;;;5028833;28;20204;-82
2023/06/11 04:10:07;;;;;;;20.07;10.80;;;20.50;99.90;;;;;;5016653;28;20207;-82
2023/06/11 04:12:32;;;;;;;11.23;10.27;;;20.50;99.90;;;;;;5022674;28;20429;-83
2023/06/11 04:14:58;;;;;;;12.50;10.00;;;20.50;99.90;;;;;;5023832;28;20788;-81
2023/06/11 04:17:23;;;;;;;11.20;10.10;;;20.50;99.90;;;;;;5003166;28;20307;-82
2023/06/11 04:19:49;;;;;;;12.07;9.67;;;20.60;99.90;;;;;;5031176;28;20284;-82
2023/06/11 04:22:14;;;;;;;11.47;10.37;;;20.60;99.90;;;;;;5016033;28;20225;-83
2023/06/11 04:24:40;;;;;;;22.53;11.40;;;20.60;99.90;;;;;;5018209;28;20272;-81
2023/06/11 04:27:06;;;;;;;18.60;10.80;;;20.60;99.90;;;;;;5023585;28;20202;-81
2023/06/11 04:29:33;;;;;;;13.80;10.40;;;20.70;99.90;;;;;;5017963;28;20187;-81
2023/06/11 04:32:01;;;;;;;15.03;10.27;;;20.70;99.90;;;;;;5021522;28;20490;-82
2023/06/11 04:34:28;;;;;;;16.87;10.70;;;20.80;99.90;;;;;;5021358;28;21030;-82
2023/06/11 04:36:57;;;;;;;18.73;10.13;;;20.80;99.90;;;;;;5025316;28;20475;-82
2023/06/11 04:39:23;;;;;;;11.50;10.33;;;20.80;99.90;;;;;;5020663;28;20478;-81
2023/06/11 04:41:51;;;;;;;19.53;10.00;;;20.90;99.90;;;;;;5000525;28;20452;-81
2023/06/11 04:44:18;;;;;;;11.90;9.77;;;20.90;99.90;;;;;;4998450;28;20244;-82
2023/06/11 04:46:43;;;;;;;17.50;10.50;;;21.00;99.90;;;;;;5019334;28;20447;-82
2023/06/11 04:49:09;;;;;;;19.47;10.00;;;21.10;99.90;;;;;;5026038;28;20555;-81
2023/06/11 04:51:40;;;;;;;14.77;10.20;;;21.10;99.90;;;;;;5031837;28;20205;-82
2023/06/11 04:54:07;;;;;;;11.13;10.00;;;21.20;99.90;;;;;;5020675;28;20278;-82
2023/06/11 04:56:35;;;;;;;15.10;10.50;;;21.40;99.90;;;;;;5019053;28;20451;-82
2023/06/11 04:59:01;;;;;;;12.13;10.67;;;21.50;99.90;;;;;;5024328;28;20456;-82
2023/06/11 05:01:30;;;;;;;13.20;10.40;;;21.50;99.90;;;;;;5011458;28;20429;-82
2023/06/11 05:03:56;;;;;;;11.43;10.23;;;21.50;99.90;;;;;;5029445;28;20229;-80
2023/06/11 05:06:23;;;;;;;11.47;10.47;;;21.70;99.90;;;;;;5021458;28;20442;-82
2023/06/11 05:08:50;;;;;;;12.10;10.90;;;21.70;99.90;;;;;;5022338;28;20468;-83
2023/06/11 05:11:16;;;;;;;12.10;9.30;;;21.80;99.90;;;;;;5024776;28;20444;-82
2023/06/11 05:13:41;;;;;;;12.10;11.00;;;21.90;99.90;;;;;;5017955;28;20585;-82
2023/06/11 05:16:08;;;;;;;11.03;10.00;;;22.00;99.90;;;;;;5021376;28;20453;-82
2023/06/11 05:18:33;;;;;;;11.47;10.27;;;22.10;99.90;;;;;;5020731;28;20711;-83
2023/06/11 05:20:59;;;;;;;10.70;9.80;;;22.20;99.90;;;;;;5000128;28;20442;-81
2023/06/11 05:23:31;;;;;;;11.80;10.60;;;22.30;99.90;;;;;;5025119;28;20210;-82
2023/06/11 05:26:11;;;;;;;10.43;9.43;;;22.30;99.90;;;;;;5016759;28;20178;-82
2023/06/11 05:28:37;;;;;;;11.33;10.33;;;22.40;99.90;;;;;;5015830;28;20462;-82
2023/06/11 05:31:03;;;;;;;12.40;10.47;;;22.50;99.90;;;;;;4998697;28;20429;-82
2023/06/11 05:33:30;;;;;;;11.30;10.20;;;22.60;99.90;;;;;;5024590;28;20211;-82
2023/06/11 05:35:56;;;;;;;11.50;10.40;;;22.70;99.90;;;;;;5021469;28;20191;-82
2023/06/11 05:38:21;;;;;;;13.30;10.00;;;22.80;99.90;;;;;;5036034;28;20834;-82
2023/06/11 05:40:47;;;;;;;13.07;10.20;;;22.90;99.90;;;;;;5035852;28;20425;-82
2023/06/11 05:43:13;;;;;;;11.80;10.80;;;23.00;99.90;;;;;;5019470;28;20250;-82
2023/06/11 05:45:46;;;;;;;11.23;10.20;;;23.10;99.90;;;;;;5017410;28;20445;-82
2023/06/11 05:48:11;;;;;;;12.50;10.33;;;23.20;99.90;;;;;;5004351;28;20200;-82
2023/06/11 05:50:37;;;;;;;11.07;10.07;;;23.30;99.90;;;;;;5021853;28;20523;-82
2023/06/11 05:53:02;;;;;;;10.53;9.63;;;23.40;99.90;;;;;;5005034;28;20184;-82
2023/06/11 05:55:28;;;;;;;10.93;9.63;;;23.50;99.90;;;;;;5021151;28;20227;-82
2023/06/11 05:57:53;;;;;;;11.53;9.97;;;23.60;99.90;;;;;;5028929;28;20736;-82
2023/06/11 06:00:19;;;;;;;10.80;9.83;;;23.70;99.90;;;;;;5020124;28;20194;-82
2023/06/11 06:02:45;;;;;;;10.73;9.73;;;23.90;99.90;;;;;;5023516;28;20317;-84
2023/06/11 06:05:10;;;;;;;10.60;9.50;;;24.10;99.90;;;;;;5024775;28;20657;-83
2023/06/11 06:07:36;;;;;;;9.90;8.97;;;24.30;99.90;;;;;;5023373;28;20205;-82
2023/06/11 06:10:02;;;;;;;10.00;8.80;;;24.70;99.90;;;;;;5005307;28;20198;-83
2023/06/11 06:12:28;;;;;;;9.83;8.90;;;25.70;99.90;;;;;;5018416;28;20211;-83
2023/06/11 06:14:53;;;;;;;9.27;8.27;;;27.50;99.90;;;;;;5024203;28;20487;-83
2023/06/11 06:17:18;;;;;;;9.73;8.73;;;30.50;99.90;;;;;;5021185;28;20217;-84
2023/06/11 06:19:44;;;;;;;8.23;7.33;;;33.40;99.90;;;;;;5024608;28;20201;-83
2023/06/11 06:22:10;;;;;;;8.70;8.00;;;35.90;99.90;;;;;;5022536;28;20195;-86
2023/06/11 06:24:35;;;;;;;7.00;6.40;;;37.70;99.70;;;;;;5021053;28;20223;-84
2023/06/11 06:27:01;;;;;;;7.47;6.87;;;39.20;91.80;;;;;;5018039;28;20273;-84
2023/06/11 06:29:26;;;;;;;7.30;6.60;;;40.70;79.80;;;;;;5028444;28;20332;-84
2023/06/11 06:31:52;;;;;;;7.30;6.67;;;42.10;85.30;;;;;;5010826;28;20568;-83
2023/06/11 06:34:18;;;;;;;7.00;6.30;;;42.90;55.00;;;;;;5017947;28;20194;-84
2023/06/11 06:36:43;;;;;;;7.53;6.10;;;43.80;47.90;;;;;;5019155;28;20211;-83
2023/06/11 06:39:09;;;;;;;7.57;6.97;;;44.70;41.70;;;;;;5024861;28;20201;-83
2023/06/11 06:41:35;;;;;;;6.20;5.60;;;45.00;32.60;;;;;;5030611;28;20210;-83
2023/06/11 06:44:00;;;;;;;6.10;5.57;;;44.90;26.40;;;;;;5008570;28;20202;-84
2023/06/11 06:46:26;;;;;;;6.90;6.40;;;44.90;21.70;;;;;;5022878;28;20210;-84
2023/06/11 06:48:51;;;;;;;6.40;5.90;;;45.20;18.80;;;;;;5028747;28;20202;-82
2023/06/11 06:51:20;;;;;;;6.33;5.80;;;45.70;15.40;;;;;;5012607;28;20198;-84
2023/06/11 06:53:47;;;;;;;6.73;6.10;;;46.20;12.30;;;;;;5003351;28;20244;-83
2023/06/11 06:56:13;;;;;;;6.00;5.50;;;47.10;11.00;;;;;;5024329;28;20464;-83
2023/06/11 06:58:38;;;;;;;6.77;6.17;;;48.00;7.60;;;;;;5021850;28;20490;-82
2023/06/11 07:01:04;;;;;;;5.93;5.40;;;48.90;5.40;;;;;;5021036;28;20448;-81
2023/06/11 07:03:30;;;;;;;5.20;4.80;;;48.30;1.80;;;;;;5025720;28;20266;-83
2023/06/11 07:05:56;;;;;;;6.07;5.57;;;48.30;1.00;;;;;;5013048;28;20194;-83
2023/06/11 07:08:21;;;;;;;5.50;5.00;;;48.60;1.00;;;;;;5005794;28;20473;-83
2023/06/11 07:10:53;;;;;;;6.00;5.60;;;48.50;1.00;;;;;;5017441;28;20218;-83
2023/06/11 07:13:20;;;;;;;6.10;5.50;;;48.50;1.00;;;;;;5013632;28;20206;-82
2023/06/11 07:15:45;;;;;;;5.90;5.40;;;49.20;1.00;;;;;;5015134;28;20472;-84
2023/06/11 07:18:11;;;;;;;5.47;4.97;;;49.10;1.00;;;;;;5017989;28;20461;-82
2023/06/11 07:20:36;;;;;;;6.30;5.00;;;48.80;1.00;;;;;;5015294;28;20190;-82
2023/06/11 07:23:02;;;;;;;5.70;5.30;;;48.60;1.00;;;;;;5012778;28;20220;-82
2023/06/11 07:25:28;;;;;;;6.07;5.57;;;48.70;1.00;;;;;;5014405;28;20186;-82
2023/06/11 07:27:54;;;;;;;9.50;5.67;;;48.70;1.00;;;;;;5017023;28;20198;-83
2023/06/11 07:30:20;;;;;;;7.50;5.30;;;48.60;1.00;;;;;;5016803;28;20194;-82
2023/06/11 07:32:46;;;;;;;5.60;5.10;;;48.90;1.00;;;;;;5019034;28;20476;-83
2023/06/11 07:35:11;;;;;;;5.77;5.37;;;49.20;1.00;;;;;;5018247;28;20780;-82
2023/06/11 07:37:37;;;;;;;10.53;5.37;;;49.60;1.00;;;;;;5024989;28;20202;-82
2023/06/11 07:40:05;;;;;;;5.43;4.93;;;49.30;1.00;;;;;;5025433;28;20652;-82
2023/06/11 07:42:31;;;;;;;5.00;4.60;;;49.00;1.00;;;;;;5015669;28;20187;-83
2023/06/11 07:44:56;;;;;;;5.30;4.80;;;49.40;1.00;;;;;;5021241;28;20525;-83
2023/06/11 07:47:22;;;;;;;5.70;5.20;;;49.40;1.00;;;;;;5002963;28;20187;-83
2023/06/11 07:49:48;;;;;;;5.60;5.10;;;49.20;1.00;;;;;;5007339;28;20182;-83
2023/06/11 07:52:13;;;;;;;6.23;4.77;;;49.50;1.00;;;;;;5004332;28;20178;-83
2023/06/11 07:54:39;;;;;;;5.87;4.50;;;49.80;1.00;;;;;;5005771;28;20591;-82
2023/06/11 07:57:06;;;;;;;6.10;4.90;;;49.60;1.00;;;;;;5019341;28;20186;-84
2023/06/11 07:59:32;;;;;;;5.27;4.77;;;49.50;1.00;;;;;;5019657;28;20192;-83
2023/06/11 08:01:57;;;;;;;5.10;4.70;;;49.40;1.00;;;;;;5020083;28;20456;-84
2023/06/11 08:04:23;;;;;;;6.03;5.53;;;49.20;1.00;;;;;;5019002;28;20195;-84
2023/06/11 08:06:49;;;;;;;4.97;4.50;;;49.30;1.00;;;;;;5020525;28;20194;-84
2023/06/11 08:09:14;;;;;;;6.37;5.10;;;49.40;1.00;;;;;;5020340;28;20837;-84
2023/06/11 08:11:41;;;;;;;6.17;5.57;;;49.40;1.00;;;;;;5022406;28;20616;-83
2023/06/11 08:14:07;;;;;;;5.50;5.10;;;49.10;1.00;;;;;;5001524;28;20221;-83
2023/06/11 08:16:32;;;;;;;5.70;5.20;;;49.00;1.00;;;;;;5014587;28;20429;-83
2023/06/11 08:18:58;;;;;;;5.83;5.40;;;48.80;1.00;;;;;;5016803;28;20213;-83
2023/06/11 08:21:24;;;;;;;5.50;5.10;;;48.70;1.00;;;;;;5023778;28;20190;-84
2023/06/11 08:23:51;;;;;;;5.40;4.73;;;48.90;1.00;;;;;;5004857;28;20509;-84
2023/06/11 08:26:17;;;;;;;5.53;5.00;;;48.90;1.00;;;;;;5031182;28;20248;-84
2023/06/11 08:28:43;;;;;;;4.97;4.60;;;48.70;1.00;;;;;;5021935;28;20837;-84
2023/06/11 08:31:09;;;;;;;4.73;4.33;;;49.20;1.00;;;;;;5034238;28;20478;-83
2023/06/11 08:33:34;;;;;;;5.40;4.90;;;49.40;1.00;;;;;;5033187;28;20205;-84
2023/06/11 08:36:00;;;;;;;6.50;4.63;;;49.40;1.00;;;;;;5014861;28;20441;-83
2023/06/11 08:38:28;;;;;;;5.50;4.40;;;49.50;1.00;;;;;;5027050;28;20290;-82
2023/06/11 08:40:53;;;;;;;8.83;4.80;;;49.50;1.00;;;;;;5012341;28;20204;-83
2023/06/11 08:43:19;;;;;;;7.63;4.50;;;49.30;1.00;;;;;;5021228;28;20452;-82
2023/06/11 08:45:45;;;;;;;5.70;5.20;;;49.00;1.00;;;;;;5020824;28;20214;-83
2023/06/11 08:48:13;;;;;;;5.27;4.77;;;49.00;1.00;;;;;;5020725;28;20194;-83
2023/06/11 08:50:38;;;;;;;5.43;5.10;;;48.70;1.00;;;;;;5007192;28;20437;-83
2023/06/11 08:53:06;;;;;;;5.03;4.50;;;48.70;1.00;;;;;;5025643;28;20523;-84
2023/06/11 08:55:32;;;;;;;6.97;4.90;;;48.70;1.00;;;;;;5019434;28;20198;-85
2023/06/11 08:57:57;;;;;;;4.30;4.00;;;48.90;1.00;;;;;;5030430;28;20436;-83
2023/06/11 09:00:23;;;;;;;4.73;4.20;;;49.40;1.00;;;;;;5005698;28;20179;-83
2023/06/11 09:02:50;;;;;;;5.97;3.93;;;49.70;1.00;;;;;;5021267;28;20213;-84
2023/06/11 09:05:16;;;;;;;4.30;3.90;;;49.40;1.00;;;;;;5028561;28;20178;-84
2023/06/11 09:07:52;;;;;;;5.87;4.23;;;49.50;1.00;;;;;;5014321;28;20506;-84
2023/06/11 09:10:19;;;;;;;4.70;4.40;;;49.40;1.00;;;;;;5027028;28;20197;-84
2023/06/11 09:12:45;;;;;;;4.47;4.13;;;49.40;1.00;;;;;;5025099;28;20433;-84
2023/06/11 09:15:12;;;;;;;6.20;4.00;;;49.50;1.00;;;;;;5030002;28;20417;-82
2023/06/11 09:17:40;;;;;;;4.47;3.70;;;48.80;1.00;;;;;;5039126;28;20469;-84
2023/06/11 09:20:09;;;;;;;4.20;3.90;;;48.70;1.00;;;;;;5034961;28;20442;-83
2023/06/11 09:22:37;;;;;;;3.80;3.50;;;48.30;1.00;;;;;;5022064;28;21027;-84
2023/06/11 09:25:04;;;;;;;4.10;3.37;;;47.90;1.00;;;;;;5022481;28;20978;-84
2023/06/11 09:27:30;;;;;;;4.20;3.90;;;48.10;1.00;;;;;;5034371;28;20452;-83
2023/06/11 09:29:56;;;;;;;4.70;4.13;;;47.90;1.00;;;;;;5001453;28;21045;-83
2023/06/11 09:32:25;;;;;;;4.50;3.60;;;47.60;1.00;;;;;;5019939;28;20171;-84
2023/06/11 09:34:51;;;;;;;4.33;4.03;;;47.40;1.00;;;;;;5036309;28;20255;-82
2023/06/11 09:37:16;;;;;;;4.67;3.97;;;47.60;1.00;;;;;;5026085;28;20461;-83
2023/06/11 09:39:42;;;;;;;3.93;3.50;;;47.20;1.00;;;;;;5016717;28;20178;-84
2023/06/11 09:42:28;;;;;;;4.87;3.67;;;47.20;1.00;;;;;;5007784;28;20273;-85
2023/06/11 09:44:58;;;;;;;4.07;3.63;;;47.10;1.00;;;;;;5019392;28;20205;-82
2023/06/11 09:47:24;;;;;;;5.20;3.53;;;47.00;1.00;;;;;;5022906;28;20986;-84
2023/06/11 09:49:51;;;;;;;4.40;4.00;;;46.90;1.00;;;;;;5032141;28;20516;-83
2023/06/11 09:52:17;;;;;;;4.50;3.80;;;46.60;1.00;;;;;;5029357;28;20187;-84
2023/06/11 09:54:43;;;;;;;3.90;3.60;;;46.30;1.00;;;;;;5032721;28;20440;-84
2023/06/11 09:57:11;;;;;;;5.37;3.90;;;46.10;1.00;;;;;;5001490;28;20421;-82
2023/06/11 09:59:39;;;;;;;4.60;3.27;;;45.70;1.00;;;;;;5027330;28;20430;-82
2023/06/11 10:02:06;;;;;;;4.37;3.50;;;45.90;1.00;;;;;;5022964;28;20437;-84
2023/06/11 10:04:32;;;;;;;3.93;3.40;;;46.00;1.00;;;;;;5008477;28;20544;-83
2023/06/11 10:06:58;;;;;;;4.70;3.20;;;45.60;1.00;;;;;;5029370;28;20438;-83
2023/06/11 10:09:24;;;;;;;4.03;3.73;;;45.10;1.00;;;;;;5022113;28;20237;-84
2023/06/11 10:11:50;;;;;;;4.00;3.60;;;44.80;1.00;;;;;;5025327;28;20430;-84
2023/06/11 10:14:20;;;;;;;4.37;3.40;;;44.60;1.00;;;;;;5019555;28;20433;-83
2023/06/11 10:16:54;;;;;;;4.77;4.03;;;44.60;1.00;;;;;;5012095;28;20194;-83
2023/06/11 10:19:22;;;;;;;3.70;3.40;;;44.50;1.00;;;;;;5033036;28;20463;-83
2023/06/11 10:21:51;;;;;;;4.60;3.67;;;44.70;1.00;;;;;;5019731;28;20442;-82
2023/06/11 10:24:28;;;;;;;4.00;3.60;;;44.50;1.00;;;;;;5030067;28;20531;-83
2023/06/11 10:27:07;;;;;;;3.47;3.20;;;44.40;1.00;;;;;;4998790;28;20416;-83
2023/06/11 10:29:38;;;;;;;3.50;3.20;;;44.40;1.00;;;;;;5035460;28;20412;-82
2023/06/11 10:32:20;;;;;;;3.60;3.30;;;44.00;1.00;;;;;;5019639;28;20433;-83
2023/06/11 10:34:57;;;;;;;3.60;3.33;;;43.70;1.00;;;;;;5007234;28;20469;-83
2023/06/11 10:37:35;;;;;;;3.30;3.00;;;43.70;1.00;;;;;;5000257;28;20452;-82
2023/06/11 10:40:01;;;;;;;3.40;3.10;;;43.50;1.00;;;;;;5011377;28;20417;-81
2023/06/11 10:42:33;;;;;;;3.50;3.20;;;43.50;1.00;;;;;;5008972;28;20461;-83
2023/06/11 10:44:59;;;;;;;3.63;3.33;;;43.50;1.00;;;;;;5014926;28;20437;-84
2023/06/11 10:47:26;;;;;;;3.63;3.33;;;43.30;1.00;;;;;;5014386;28;20445;-84
2023/06/11 10:49:53;;;;;;;3.73;3.03;;;43.30;1.00;;;;;;4995309;28;20191;-81
2023/06/11 10:52:19;;;;;;;5.03;3.97;;;43.60;1.00;;;;;;5019954;28;20437;-85
2023/06/11 10:54:50;;;;;;;4.40;4.03;;;43.70;1.00;;;;;;5007791;28;21555;-82
2023/06/11 10:57:15;;;;;;;3.90;3.60;;;43.60;1.00;;;;;;5016643;28;20214;-83
2023/06/11 10:59:41;;;;;;;4.30;3.90;;;43.80;1.00;;;;;;5010559;28;20450;-83
2023/06/11 11:02:11;;;;;;;4.67;4.20;;;43.70;1.00;;;;;;5014721;28;20221;-84
2023/06/11 11:04:51;;;;;;;4.77;4.37;;;43.20;1.00;;;;;;5000229;28;20976;-84
2023/06/11 11:07:18;;;;;;;4.10;3.70;;;43.00;1.00;;;;;;4998784;28;21015;-82
2023/06/11 11:09:44;;;;;;;4.23;3.83;;;43.00;1.00;;;;;;4992517;28;20441;-84
2023/06/11 11:12:11;;;;;;;4.40;4.00;;;42.80;1.00;;;;;;5021814;28;20430;-82
2023/06/11 11:14:37;;;;;;;4.50;4.10;;;42.60;1.00;;;;;;5018832;28;20445;-82
2023/06/11 11:17:03;;;;;;;4.90;4.20;;;42.60;1.00;;;;;;5020801;28;20525;-82
2023/06/11 11:19:30;;;;;;;4.60;4.20;;;42.60;1.00;;;;;;5016964;28;20309;-82
2023/06/11 11:21:55;;;;;;;4.50;4.10;;;42.40;1.00;;;;;;5002646;28;20444;-82
2023/06/11 11:24:21;;;;;;;4.90;4.23;;;42.00;1.00;;;;;;5001655;28;20465;-82
2023/06/11 11:26:46;;;;;;;7.10;4.03;;;41.90;1.00;;;;;;4992583;28;20560;-82
2023/06/11 11:29:12;;;;;;;6.00;4.23;;;41.50;1.00;;;;;;5022618;28;20214;-82
2023/06/11 11:31:39;;;;;;;5.20;3.53;;;41.40;1.00;;;;;;5014438;28;20245;-82
2023/06/11 11:34:05;;;;;;;4.40;4.00;;;41.30;1.00;;;;;;5021684;28;20468;-84
2023/06/11 11:36:31;;;;;;;3.80;3.50;;;41.30;1.00;;;;;;5018674;28;20441;-82
2023/06/11 11:39:07;;;;;;;4.80;4.30;;;41.10;1.00;;;;;;5000534;28;20294;-82
2023/06/11 11:41:33;;;;;;;5.13;4.17;;;40.80;1.00;;;;;;5000631;28;20421;-82
2023/06/11 11:44:00;;;;;;;6.40;4.83;;;40.70;1.00;;;;;;5017426;28;21019;-82
2023/06/11 11:46:25;;;;;;;5.10;4.40;;;40.50;1.00;;;;;;5019814;28;20191;-83
2023/06/11 11:48:57;;;;;;;4.40;4.00;;;40.60;1.00;;;;;;5003686;28;21279;-82
2023/06/11 11:51:25;;;;;;;4.90;4.40;;;40.80;1.00;;;;;;5019392;28;20274;-82
2023/06/11 11:53:51;;;;;;;5.53;3.73;;;41.20;1.00;;;;;;5016797;28;20823;-82
2023/06/11 11:56:17;;;;;;;5.80;4.30;;;41.10;1.00;;;;;;5012387;28;20592;-82
2023/06/11 11:58:44;;;;;;;6.00;4.47;;;41.00;1.00;;;;;;5015745;28;20452;-82
2023/06/11 12:01:21;;;;;;;5.50;4.60;;;40.60;1.00;;;;;;5003622;28;20194;-82
2023/06/11 12:04:05;;;;;;;5.10;4.60;;;40.60;1.00;;;;;;5017846;28;20471;-83
2023/06/11 12:06:30;;;;;;;5.17;4.60;;;40.30;1.00;;;;;;5019461;28;20441;-84
2023/06/11 12:08:56;;;;;;;8.43;4.40;;;40.00;1.00;;;;;;5020904;28;20947;-84
2023/06/11 12:11:22;;;;;;;4.63;4.23;;;39.90;1.00;;;;;;5019809;28;20213;-83
2023/06/11 12:13:47;;;;;;;4.50;4.10;;;39.70;1.00;;;;;;5030877;28;20189;-84
2023/06/11 12:16:14;;;;;;;6.20;4.70;;;39.60;1.00;;;;;;5022872;28;20440;-84
2023/06/11 12:18:40;;;;;;;6.90;4.57;;;39.50;1.00;;;;;;5015951;28;20606;-84
2023/06/11 12:21:07;;;;;;;4.73;4.33;;;39.60;1.00;;;;;;5002206;28;20916;-84
2023/06/11 12:23:33;;;;;;;4.20;3.90;;;39.90;1.00;;;;;;5018809;28;20218;-83
2023/06/11 12:26:00;;;;;;;4.90;4.20;;;39.90;1.00;;;;;;5019542;28;21093;-83
2023/06/11 12:28:25;;;;;;;4.47;4.07;;;39.60;1.00;;;;;;5020700;28;20206;-83
2023/06/11 12:30:51;;;;;;;5.40;4.30;;;39.40;1.00;;;;;;5016756;28;20770;-82
2023/06/11 12:33:17;;;;;;;4.83;4.33;;;39.20;1.00;;;;;;5017269;28;20183;-84
2023/06/11 12:35:43;;;;;;;6.03;4.47;;;39.10;1.00;;;;;;5027942;28;20182;-83
2023/06/11 12:38:08;;;;;;;4.77;4.37;;;39.20;1.00;;;;;;5029181;28;20206;-83
2023/06/11 12:40:34;;;;;;;7.70;4.83;;;39.10;1.00;;;;;;5020779;28;20445;-84